createdAt,value
2019-01-14T00:00:50.346Z,966.056
2019-01-14T00:02:50.296Z,966.086
2019-01-14T00:04:55.913Z,966.091
2019-01-14T00:06:50.086Z,966.122
2019-01-14T00:08:50.182Z,966.140
2019-01-14T00:10:50.181Z,966.151
2019-01-14T00:12:50.261Z,966.129
2019-01-14T00:14:50.295Z,966.131
2019-01-14T00:16:50.472Z,966.120
2019-01-14T00:18:50.577Z,966.131
2019-01-14T00:20:50.522Z,966.163
2019-01-14T00:22:50.567Z,966.248
2019-01-14T00:24:50.589Z,966.240
2019-01-14T00:26:49.900Z,966.278
2019-01-14T00:28:49.955Z,966.334
2019-01-14T00:30:49.904Z,966.334
2019-01-14T00:32:49.888Z,966.367
2019-01-14T00:34:50.261Z,966.405
2019-01-14T00:36:50.438Z,966.400
2019-01-14T00:38:50.467Z,966.440
2019-01-14T00:40:50.444Z,966.448
2019-01-14T00:42:50.435Z,966.443
2019-01-14T00:44:50.529Z,966.469
2019-01-14T00:46:49.774Z,966.469
2019-01-14T00:48:49.788Z,966.425
2019-01-14T00:50:49.770Z,966.445
2019-01-14T00:52:49.801Z,966.473
2019-01-14T00:54:49.872Z,966.487
2019-01-14T00:56:50.010Z,966.511
2019-01-14T00:58:50.033Z,966.571
2019-01-14T01:00:50.079Z,966.575
2019-01-14T01:02:50.058Z,966.612
2019-01-14T01:04:50.366Z,966.612
2019-01-14T01:06:50.552Z,966.647
2019-01-14T01:08:50.501Z,966.650
2019-01-14T01:10:50.537Z,966.633
2019-01-14T01:12:50.473Z,966.627
2019-01-14T01:14:50.430Z,966.678
2019-01-14T01:16:49.686Z,966.724
2019-01-14T01:18:49.718Z,966.771
2019-01-14T01:20:49.778Z,966.851
2019-01-14T01:22:49.752Z,966.899
2019-01-14T01:24:49.754Z,966.895
2019-01-14T01:26:50.066Z,966.926
2019-01-14T01:28:50.075Z,966.976
2019-01-14T01:30:50.089Z,966.974
2019-01-14T01:32:50.148Z,967.043
2019-01-14T01:34:50.409Z,967.071
2019-01-14T01:36:50.521Z,967.095
2019-01-14T01:38:50.542Z,967.143
2019-01-14T01:40:50.418Z,967.160
2019-01-14T01:42:50.461Z,967.190
2019-01-14T01:44:50.381Z,967.248
2019-01-14T01:46:50.554Z,967.305
2019-01-14T01:48:50.467Z,967.323
2019-01-14T01:50:50.430Z,967.376
2019-01-14T01:52:50.504Z,967.392
2019-01-14T01:54:50.427Z,967.448
2019-01-14T01:56:49.678Z,967.492
2019-01-14T01:58:49.674Z,967.510
2019-01-14T02:00:49.639Z,967.540
2019-01-14T02:02:49.646Z,967.562
2019-01-14T02:04:50.073Z,967.544
2019-01-14T02:06:50.301Z,967.544
2019-01-14T02:08:50.363Z,967.603
2019-01-14T02:10:50.388Z,967.640
2019-01-14T02:12:50.524Z,967.701
2019-01-14T02:14:49.593Z,967.709
2019-01-14T02:16:49.846Z,967.692
2019-01-14T02:18:49.932Z,967.743
2019-01-14T02:20:49.933Z,967.769
2019-01-14T02:22:50.052Z,967.760
2019-01-14T02:24:50.154Z,967.731
2019-01-14T02:26:50.576Z,967.709
2019-01-14T02:28:49.624Z,967.718
2019-01-14T02:30:49.746Z,967.702
2019-01-14T02:32:49.839Z,967.725
2019-01-14T02:34:50.190Z,967.793
2019-01-14T02:36:50.358Z,967.842
2019-01-14T02:38:50.308Z,967.842
2019-01-14T02:40:50.335Z,967.873
2019-01-14T02:42:50.370Z,967.895
2019-01-14T02:44:50.401Z,967.918
2019-01-14T02:46:49.690Z,967.924
2019-01-14T02:48:49.749Z,967.918
2019-01-14T02:50:49.857Z,967.953
2019-01-14T02:52:49.883Z,967.944
2019-01-14T02:54:49.912Z,967.950
2019-01-14T02:56:50.181Z,968.003
2019-01-14T02:58:50.186Z,968.012
2019-01-14T03:00:50.179Z,968.069
2019-01-14T03:02:50.184Z,968.082
2019-01-14T03:04:50.354Z,968.122
2019-01-14T03:06:58.266Z,968.117
2019-01-14T03:08:50.395Z,968.138
2019-01-14T03:10:50.466Z,968.154
2019-01-14T03:12:50.457Z,968.164
2019-01-14T03:14:50.613Z,968.188
2019-01-14T03:16:49.861Z,968.245
2019-01-14T03:18:49.846Z,968.279
2019-01-14T03:20:49.828Z,968.322
2019-01-14T03:22:49.894Z,968.343
2019-01-14T03:24:49.957Z,968.392
2019-01-14T03:26:50.113Z,968.438
2019-01-14T03:28:50.125Z,968.535
2019-01-14T03:30:50.124Z,968.609
2019-01-14T03:32:50.227Z,968.609
2019-01-14T03:34:50.410Z,968.683
2019-01-14T03:36:50.598Z,968.749
2019-01-14T03:38:49.718Z,968.787
2019-01-14T03:40:49.654Z,968.822
2019-01-14T03:42:49.661Z,968.848
2019-01-14T03:44:49.690Z,968.879
2019-01-14T03:46:49.889Z,968.884
2019-01-14T03:48:49.913Z,968.886
2019-01-14T03:50:49.942Z,968.874
2019-01-14T03:52:49.941Z,968.900
2019-01-14T03:54:49.943Z,968.897
2019-01-14T03:56:50.281Z,968.893
2019-01-14T03:58:50.239Z,968.905
2019-01-14T04:00:50.259Z,968.956
2019-01-14T04:02:50.329Z,969.012
2019-01-14T04:04:49.750Z,969.101
2019-01-14T04:06:49.901Z,969.139
2019-01-14T04:08:49.833Z,969.207
2019-01-14T04:10:49.844Z,969.220
2019-01-14T04:12:49.859Z,969.246
2019-01-14T04:14:49.864Z,969.240
2019-01-14T04:16:49.988Z,969.239
2019-01-14T04:18:50.005Z,969.275
2019-01-14T04:20:49.996Z,969.292
2019-01-14T04:22:49.978Z,969.399
2019-01-14T04:24:49.958Z,969.399
2019-01-14T04:26:50.195Z,969.422
2019-01-14T04:28:50.257Z,969.497
2019-01-14T04:30:50.234Z,969.497
2019-01-14T04:32:50.294Z,969.533
2019-01-14T04:34:49.714Z,969.552
2019-01-14T04:36:50.033Z,969.628
2019-01-14T04:38:50.033Z,969.656
2019-01-14T04:40:50.008Z,969.672
2019-01-14T04:42:49.967Z,969.662
2019-01-14T04:44:50.018Z,969.716
2019-01-14T04:46:50.282Z,969.719
2019-01-14T04:48:50.324Z,969.766
2019-01-14T04:50:50.311Z,969.766
2019-01-14T04:52:50.270Z,969.838
2019-01-14T04:54:50.162Z,969.894
2019-01-14T04:56:50.293Z,969.905
2019-01-14T04:58:50.298Z,969.895
2019-01-14T05:00:50.187Z,969.913
2019-01-14T05:02:50.188Z,969.927
2019-01-14T05:04:50.434Z,969.944
2019-01-14T05:06:50.547Z,969.985
2019-01-14T05:08:50.525Z,970.005
2019-01-14T05:10:50.541Z,970.024
2019-01-14T05:12:50.524Z,970.044
2019-01-14T05:14:50.506Z,970.079
2019-01-14T05:16:49.839Z,970.102
2019-01-14T05:18:49.939Z,970.136
2019-01-14T05:20:49.906Z,970.136
2019-01-14T05:22:49.916Z,970.279
2019-01-14T05:24:49.946Z,970.294
2019-01-14T05:26:49.823Z,970.323
2019-01-14T05:28:49.842Z,970.348
2019-01-14T05:30:49.861Z,970.436
2019-01-14T05:32:49.838Z,970.487
2019-01-14T05:34:50.105Z,970.498
2019-01-14T05:36:50.326Z,970.498
2019-01-14T05:38:50.305Z,970.584
2019-01-14T05:40:50.404Z,970.596
2019-01-14T05:42:50.401Z,970.678
2019-01-14T05:44:50.432Z,970.724
2019-01-14T05:46:50.574Z,970.745
2019-01-14T05:48:50.657Z,970.832
2019-01-14T05:50:49.623Z,970.868
2019-01-14T05:52:49.745Z,970.911
2019-01-14T05:54:49.862Z,970.946
2019-01-14T05:56:50.104Z,970.971
2019-01-14T05:58:50.134Z,971.010
2019-01-14T06:00:50.122Z,971.059
2019-01-14T06:02:50.152Z,971.128
2019-01-14T06:04:50.467Z,971.131
2019-01-14T06:06:49.645Z,971.177
2019-01-14T06:08:49.755Z,971.196
2019-01-14T06:10:49.797Z,971.216
2019-01-14T06:12:49.789Z,971.226
2019-01-14T06:14:49.801Z,971.280
2019-01-14T06:16:50.124Z,971.303
2019-01-14T06:18:50.130Z,971.323
2019-01-14T06:20:50.126Z,971.458
2019-01-14T06:22:50.102Z,971.480
2019-01-14T06:24:50.087Z,971.505
2019-01-14T06:26:50.229Z,971.514
2019-01-14T06:28:50.326Z,971.538
2019-01-14T06:30:50.391Z,971.568
2019-01-14T06:32:50.398Z,971.588
2019-01-14T06:34:49.733Z,971.630
2019-01-14T06:36:49.632Z,971.654
2019-01-14T06:38:49.729Z,971.741
2019-01-14T06:40:49.748Z,971.747
2019-01-14T06:42:49.792Z,971.777
2019-01-14T06:44:49.772Z,971.789
2019-01-14T06:46:50.146Z,971.792
2019-01-14T06:48:50.084Z,971.837
2019-01-14T06:50:50.116Z,971.884
2019-01-14T06:52:50.130Z,971.930
2019-01-14T06:54:50.097Z,971.987
2019-01-14T06:56:50.281Z,972.024
2019-01-14T06:58:50.294Z,972.041
2019-01-14T07:00:50.389Z,972.067
2019-01-14T07:02:50.296Z,972.089
2019-01-14T07:04:50.556Z,972.130
2019-01-14T07:06:49.695Z,972.217
2019-01-14T07:08:49.771Z,972.237
2019-01-14T07:10:49.799Z,972.309
2019-01-14T07:12:49.840Z,972.328
2019-01-14T07:14:49.920Z,972.421
2019-01-14T07:16:50.152Z,972.468
2019-01-14T07:18:50.163Z,972.562
2019-01-14T07:20:50.158Z,972.619
2019-01-14T07:22:50.179Z,972.627
2019-01-14T07:24:50.187Z,972.640
2019-01-14T07:26:50.449Z,972.662
2019-01-14T07:28:50.430Z,972.715
2019-01-14T07:30:50.506Z,972.741
2019-01-14T07:32:50.522Z,972.785
2019-01-14T07:34:49.872Z,972.806
2019-01-14T07:36:50.029Z,972.873
2019-01-14T07:38:50.052Z,972.920
2019-01-14T07:40:50.112Z,972.934
2019-01-14T07:42:50.120Z,972.944
2019-01-14T07:44:50.076Z,972.936
2019-01-14T07:46:50.185Z,972.956
2019-01-14T07:48:50.208Z,972.976
2019-01-14T07:50:50.215Z,972.995
2019-01-14T07:52:50.227Z,973.002
2019-01-14T07:54:50.194Z,973.031
2019-01-14T07:56:50.426Z,973.035
2019-01-14T07:58:50.406Z,973.039
2019-01-14T08:00:50.508Z,973.082
2019-01-14T08:02:50.468Z,973.079
2019-01-14T08:04:49.835Z,973.067
2019-01-14T08:06:49.941Z,973.079
2019-01-14T08:08:49.974Z,973.114
2019-01-14T08:10:49.947Z,973.156
2019-01-14T08:12:49.976Z,973.205
2019-01-14T08:14:50.098Z,973.246
2019-01-14T08:16:50.366Z,973.251
2019-01-14T08:18:50.445Z,973.268
2019-01-14T08:20:50.491Z,973.282
2019-01-14T08:22:50.541Z,973.313
2019-01-14T08:24:50.579Z,973.309
2019-01-14T08:26:49.857Z,973.327
2019-01-14T08:28:49.896Z,973.362
2019-01-14T08:30:49.902Z,973.387
2019-01-14T08:32:49.897Z,973.435
2019-01-14T08:34:50.152Z,973.457
2019-01-14T08:36:50.369Z,973.483
2019-01-14T08:38:50.386Z,973.504
2019-01-14T08:40:50.423Z,973.517
2019-01-14T08:42:50.344Z,973.516
2019-01-14T08:44:50.300Z,973.505
2019-01-14T08:46:49.632Z,973.496
2019-01-14T08:48:49.681Z,973.496
2019-01-14T08:50:49.753Z,973.528
2019-01-14T08:52:49.717Z,973.554
2019-01-14T08:54:49.725Z,973.583
2019-01-14T08:56:49.929Z,973.626
2019-01-14T08:58:49.898Z,973.616
2019-01-14T09:00:49.928Z,973.622
2019-01-14T09:02:49.948Z,973.648
2019-01-14T09:04:50.348Z,973.658
2019-01-14T09:06:50.554Z,973.651
2019-01-14T09:08:50.576Z,973.661
2019-01-14T09:10:50.589Z,973.653
2019-01-14T09:12:49.707Z,973.680
2019-01-14T09:14:49.702Z,973.732
2019-01-14T09:16:49.869Z,973.745
2019-01-14T09:18:49.880Z,973.756
2019-01-14T09:20:49.833Z,973.748
2019-01-14T09:22:49.925Z,973.762
2019-01-14T09:24:49.923Z,973.783
2019-01-14T09:26:50.065Z,973.801
2019-01-14T09:28:50.023Z,973.817
2019-01-14T09:30:50.034Z,973.780
2019-01-14T09:32:50.055Z,973.740
2019-01-14T09:34:50.344Z,973.763
2019-01-14T09:36:50.578Z,973.791
2019-01-14T09:38:50.597Z,973.806
2019-01-14T09:40:49.610Z,973.835
2019-01-14T09:42:49.662Z,973.769
2019-01-14T09:44:49.607Z,973.715
2019-01-14T09:46:49.796Z,973.724
2019-01-14T09:48:49.882Z,973.816
2019-01-14T09:50:49.863Z,973.843
2019-01-14T09:52:49.803Z,973.946
2019-01-14T09:54:49.848Z,974.073
2019-01-14T09:56:50.102Z,974.073
2019-01-14T09:58:50.071Z,974.319
2019-01-14T10:00:50.043Z,974.376
2019-01-14T10:02:50.139Z,974.379
2019-01-14T10:04:49.636Z,974.366
2019-01-14T10:06:49.842Z,974.310
2019-01-14T10:08:49.810Z,974.303
2019-01-14T10:10:49.867Z,974.332
2019-01-14T10:12:49.831Z,974.388
2019-01-14T10:14:49.759Z,974.363
2019-01-14T10:16:49.982Z,974.322
2019-01-14T10:18:50.023Z,974.173
2019-01-14T10:20:50.010Z,974.156
2019-01-14T10:22:50.037Z,974.141
2019-01-14T10:24:49.989Z,974.141
2019-01-14T10:26:50.154Z,974.115
2019-01-14T10:28:50.155Z,974.138
2019-01-14T10:30:50.156Z,974.155
2019-01-14T10:32:50.137Z,974.191
2019-01-14T10:34:50.340Z,974.222
2019-01-14T10:36:50.714Z,974.226
2019-01-14T10:38:50.836Z,974.252
2019-01-14T10:40:49.826Z,974.267
2019-01-14T10:42:49.879Z,974.252
2019-01-14T10:44:49.863Z,974.246
2019-01-14T10:46:50.102Z,974.234
2019-01-14T10:48:50.161Z,974.217
2019-01-14T10:50:50.160Z,974.221
2019-01-14T10:52:50.132Z,974.253
2019-01-14T10:54:50.165Z,974.274
2019-01-14T10:56:50.425Z,974.317
2019-01-14T10:58:50.425Z,974.316
2019-01-14T11:00:50.356Z,974.309
2019-01-14T11:02:50.474Z,974.296
2019-01-14T11:04:49.758Z,974.288
2019-01-14T11:06:50.076Z,974.271
2019-01-14T11:08:50.136Z,974.262
2019-01-14T11:10:49.933Z,974.266
2019-01-14T11:12:49.950Z,974.287
2019-01-14T11:14:49.960Z,974.267
2019-01-14T11:16:50.176Z,974.230
2019-01-14T11:18:50.146Z,974.209
2019-01-14T11:20:50.167Z,974.153
2019-01-14T11:22:50.303Z,974.123
2019-01-14T11:24:50.266Z,974.072
2019-01-14T11:26:49.871Z,974.046
2019-01-14T11:28:49.812Z,974.043
2019-01-14T11:30:49.817Z,974.074
2019-01-14T11:32:49.815Z,974.116
2019-01-14T11:34:50.315Z,974.178
2019-01-14T11:36:49.612Z,974.186
2019-01-14T11:38:49.685Z,974.189
2019-01-14T11:40:49.621Z,974.210
2019-01-14T11:42:49.607Z,974.209
2019-01-14T11:44:49.671Z,974.250
2019-01-14T11:46:49.883Z,974.256
2019-01-14T11:48:49.874Z,974.266
2019-01-14T11:50:49.832Z,974.265
2019-01-14T11:52:49.881Z,974.263
2019-01-14T11:54:49.918Z,974.265
2019-01-14T11:56:50.388Z,974.249
2019-01-14T11:58:50.506Z,974.225
2019-01-14T12:00:49.731Z,974.210
2019-01-14T12:02:49.744Z,974.234
2019-01-14T12:04:50.196Z,974.213
2019-01-14T12:06:50.519Z,974.234
2019-01-14T12:08:49.668Z,974.229
2019-01-14T12:10:49.854Z,974.243
2019-01-14T12:12:50.009Z,974.235
2019-01-14T12:14:50.303Z,974.201
2019-01-14T12:16:49.662Z,974.203
2019-01-14T12:18:49.843Z,974.198
2019-01-14T12:20:49.868Z,974.218
2019-01-14T12:22:49.907Z,974.238
2019-01-14T12:24:49.828Z,974.237
2019-01-14T12:26:49.979Z,974.246
2019-01-14T12:28:49.956Z,974.243
2019-01-14T12:30:49.873Z,974.281
2019-01-14T12:32:49.890Z,974.305
2019-01-14T12:34:50.221Z,974.327
2019-01-14T12:36:52.029Z,974.350
2019-01-14T12:38:50.098Z,974.407
2019-01-14T12:40:50.146Z,974.443
2019-01-14T12:42:50.094Z,974.514
2019-01-14T12:44:50.079Z,974.574
2019-01-14T12:46:50.270Z,974.612
2019-01-14T12:48:50.191Z,974.660
2019-01-14T12:50:50.308Z,974.684
2019-01-14T12:52:50.261Z,974.707
2019-01-14T12:54:50.236Z,974.707
2019-01-14T12:56:50.459Z,974.737
2019-01-14T12:58:49.662Z,974.742
2019-01-14T13:00:49.773Z,974.808
2019-01-14T13:02:49.948Z,974.793
2019-01-14T13:04:50.485Z,974.750
2019-01-14T13:06:49.769Z,974.746
2019-01-14T13:08:49.882Z,974.814
2019-01-14T13:10:50.170Z,974.866
2019-01-14T13:12:50.208Z,974.897
2019-01-14T13:14:50.206Z,974.961
2019-01-14T13:16:49.626Z,974.985
2019-01-14T13:18:49.966Z,975.041
2019-01-14T13:20:50.179Z,975.041
2019-01-14T13:22:50.270Z,975.160
2019-01-14T13:24:50.500Z,975.182
2019-01-14T13:26:49.846Z,975.209
2019-01-14T13:28:49.813Z,975.312
2019-01-14T13:30:49.799Z,975.312
2019-01-14T13:32:50.001Z,975.368
2019-01-14T13:34:49.603Z,975.372
2019-01-14T13:36:50.023Z,975.386
2019-01-14T13:38:50.107Z,975.375
2019-01-14T13:40:50.383Z,975.374
2019-01-14T13:42:50.540Z,975.367
2019-01-14T13:44:49.752Z,975.416
2019-01-14T13:46:50.164Z,975.479
2019-01-14T13:48:50.269Z,975.527
2019-01-14T13:50:50.446Z,975.533
2019-01-14T13:52:49.674Z,975.538
2019-01-14T13:54:49.629Z,975.545
2019-01-14T13:56:49.839Z,975.555
2019-01-14T13:58:49.820Z,975.618
2019-01-14T14:00:49.825Z,975.629
2019-01-14T14:02:49.814Z,975.638
2019-01-14T14:04:50.086Z,975.663
2019-01-14T14:06:50.242Z,975.676
2019-01-14T14:08:50.278Z,975.684
2019-01-14T14:10:50.215Z,975.714
2019-01-14T14:12:50.329Z,975.731
2019-01-14T14:14:50.252Z,975.796
2019-01-14T14:16:50.393Z,975.811
2019-01-14T14:18:50.417Z,975.804
2019-01-14T14:20:50.401Z,975.834
2019-01-14T14:22:50.447Z,975.920
2019-01-14T14:24:50.352Z,975.926
2019-01-14T14:26:50.586Z,975.965
2019-01-14T14:28:49.627Z,975.977
2019-01-14T14:30:49.653Z,975.983
2019-01-14T14:32:49.651Z,976.086
2019-01-14T14:34:49.965Z,976.124
2019-01-14T14:36:50.164Z,976.162
2019-01-14T14:38:50.229Z,976.186
2019-01-14T14:40:50.275Z,976.261
2019-01-14T14:42:50.342Z,976.312
2019-01-14T14:44:50.269Z,976.345
2019-01-14T14:46:50.554Z,976.352
2019-01-14T14:48:49.651Z,976.399
2019-01-14T14:50:49.602Z,976.395
2019-01-14T14:52:50.646Z,976.389
2019-01-14T14:54:49.704Z,976.403
2019-01-14T14:56:49.840Z,976.420
2019-01-14T14:58:49.792Z,976.429
2019-01-14T15:00:49.798Z,976.473
2019-01-14T15:02:49.867Z,976.528
2019-01-14T15:04:50.121Z,976.620
2019-01-14T15:06:50.376Z,976.650
2019-01-14T15:08:50.352Z,976.678
2019-01-14T15:10:50.351Z,976.707
2019-01-14T15:12:50.292Z,976.709
2019-01-14T15:14:50.242Z,976.729
2019-01-14T15:16:50.368Z,976.706
2019-01-14T15:18:50.383Z,976.735
2019-01-14T15:20:50.282Z,976.761
2019-01-14T15:22:50.246Z,976.740
2019-01-14T15:24:50.304Z,976.745
2019-01-14T15:26:50.468Z,976.743
2019-01-14T15:28:50.469Z,976.776
2019-01-14T15:30:50.446Z,976.851
2019-01-14T15:32:50.525Z,976.878
2019-01-14T15:34:49.764Z,976.915
2019-01-14T15:36:50.122Z,976.984
2019-01-14T15:38:50.135Z,977.019
2019-01-14T15:40:50.178Z,977.039
2019-01-14T15:42:50.192Z,977.112
2019-01-14T15:44:50.309Z,977.142
2019-01-14T15:46:50.520Z,977.164
2019-01-14T15:48:49.712Z,977.199
2019-01-14T15:50:49.689Z,977.193
2019-01-14T15:52:49.709Z,977.221
2019-01-14T15:54:49.791Z,977.206
2019-01-14T15:56:49.962Z,977.231
2019-01-14T15:58:49.966Z,977.265
2019-01-14T16:00:50.019Z,977.304
2019-01-14T16:02:50.003Z,977.354
2019-01-14T16:04:50.417Z,977.369
2019-01-14T16:06:49.609Z,977.426
2019-01-14T16:08:49.720Z,977.466
2019-01-14T16:10:49.778Z,977.476
2019-01-14T16:12:49.866Z,977.507
2019-01-14T16:14:49.799Z,977.537
2019-01-14T16:16:50.045Z,977.640
2019-01-14T16:18:49.999Z,977.640
2019-01-14T16:20:49.966Z,977.728
2019-01-14T16:22:49.943Z,977.752
2019-01-14T16:24:49.917Z,977.836
2019-01-14T16:26:50.103Z,977.891
2019-01-14T16:28:50.106Z,977.924
2019-01-14T16:30:50.126Z,977.969
2019-01-14T16:32:50.081Z,977.986
2019-01-14T16:34:50.252Z,978.005
2019-01-14T16:36:50.390Z,978.004
2019-01-14T16:38:50.374Z,978.049
2019-01-14T16:40:50.304Z,978.046
2019-01-14T16:42:50.307Z,978.065
2019-01-14T16:44:50.229Z,978.151
2019-01-14T16:46:50.420Z,978.191
2019-01-14T16:48:50.421Z,978.242
2019-01-14T16:50:50.349Z,978.279
2019-01-14T16:52:50.414Z,978.320
2019-01-14T16:54:50.344Z,978.369
2019-01-14T16:56:50.546Z,978.430
2019-01-14T16:58:49.748Z,978.492
2019-01-14T17:00:49.811Z,978.548
2019-01-14T17:02:49.756Z,978.549
2019-01-14T17:04:50.187Z,978.639
2019-01-14T17:06:50.314Z,978.707
2019-01-14T17:08:50.459Z,978.725
2019-01-14T17:10:50.396Z,978.740
2019-01-14T17:12:50.394Z,978.790
2019-01-14T17:14:50.346Z,978.804
2019-01-14T17:16:50.513Z,978.820
2019-01-14T17:18:50.517Z,978.866
2019-01-14T17:20:50.442Z,978.908
2019-01-14T17:22:50.562Z,978.919
2019-01-14T17:24:50.569Z,978.951
2019-01-14T17:26:49.779Z,979.018
2019-01-14T17:28:49.862Z,979.031
2019-01-14T17:30:49.842Z,979.060
2019-01-14T17:32:49.907Z,979.107
2019-01-14T17:34:50.255Z,979.110
2019-01-14T17:36:50.403Z,979.173
2019-01-14T17:38:51.332Z,979.216
2019-01-14T17:40:50.299Z,979.266
2019-01-14T17:42:50.234Z,979.353
2019-01-14T17:44:50.274Z,979.451
2019-01-14T17:46:50.470Z,979.490
2019-01-14T17:48:50.445Z,979.503
2019-01-14T17:50:50.475Z,979.530
2019-01-14T17:52:50.451Z,979.595
2019-01-14T17:54:50.426Z,979.635
2019-01-14T17:56:49.767Z,979.689
2019-01-14T17:58:49.792Z,979.752
2019-01-14T18:00:49.947Z,979.806
2019-01-14T18:02:50.322Z,979.837
2019-01-14T18:04:49.777Z,979.846
2019-01-14T18:06:50.102Z,979.941
2019-01-14T18:08:50.116Z,979.991
2019-01-14T18:10:50.074Z,980.001
2019-01-14T18:12:50.040Z,980.042
2019-01-14T18:14:50.000Z,980.048
2019-01-14T18:16:50.219Z,980.056
2019-01-14T18:18:50.153Z,980.106
2019-01-14T18:20:50.195Z,980.136
2019-01-14T18:22:50.145Z,980.138
2019-01-14T18:24:50.124Z,980.123
2019-01-14T18:26:50.398Z,980.124
2019-01-14T18:28:50.310Z,980.130
2019-01-14T18:30:50.358Z,980.158
2019-01-14T18:32:50.390Z,980.179
2019-01-14T18:34:49.681Z,980.231
2019-01-14T18:36:49.919Z,980.271
2019-01-14T18:38:49.985Z,980.279
2019-01-14T18:40:49.973Z,980.333
2019-01-14T18:42:49.983Z,980.330
2019-01-14T18:44:49.958Z,980.384
2019-01-14T18:46:50.209Z,980.431
2019-01-14T18:48:50.294Z,980.523
2019-01-14T18:50:50.337Z,980.561
2019-01-14T18:52:50.388Z,980.601
2019-01-14T18:54:50.419Z,980.634
2019-01-14T18:56:49.700Z,980.671
2019-01-14T18:58:49.779Z,980.706
2019-01-14T19:00:49.935Z,980.760
2019-01-14T19:02:49.892Z,980.838
2019-01-14T19:04:50.031Z,980.893
2019-01-14T19:06:50.324Z,980.912
2019-01-14T19:08:50.422Z,980.979
2019-01-14T19:10:54.889Z,981.035
2019-01-14T19:12:49.885Z,981.053
2019-01-14T19:14:49.918Z,981.163
2019-01-14T19:16:50.234Z,981.234
2019-01-14T19:18:50.262Z,981.308
2019-01-14T19:20:50.193Z,981.331
2019-01-14T19:22:50.237Z,981.364
2019-01-14T19:24:50.194Z,981.379
2019-01-14T19:26:50.437Z,981.404
2019-01-14T19:28:50.499Z,981.479
2019-01-14T19:30:50.413Z,981.523
2019-01-14T19:32:50.542Z,981.532
2019-01-14T19:34:49.859Z,981.582
2019-01-14T19:36:50.074Z,981.614
2019-01-14T19:38:50.047Z,981.640
2019-01-14T19:40:50.024Z,981.639
2019-01-14T19:42:50.056Z,981.671
2019-01-14T19:44:50.053Z,981.684
2019-01-14T19:46:50.213Z,981.736
2019-01-14T19:48:50.161Z,981.764
2019-01-14T19:50:50.183Z,981.781
2019-01-14T19:52:50.237Z,981.842
2019-01-14T19:54:50.229Z,981.918
2019-01-14T19:56:50.422Z,981.932
2019-01-14T19:58:50.442Z,981.998
2019-01-14T20:00:50.363Z,982.025
2019-01-14T20:02:50.448Z,982.086
2019-01-14T20:04:49.719Z,982.145
2019-01-14T20:06:50.040Z,982.185
2019-01-14T20:08:50.153Z,982.179
2019-01-14T20:10:50.179Z,982.161
2019-01-14T20:12:50.219Z,982.220
2019-01-14T20:14:50.234Z,982.235
2019-01-14T20:16:50.488Z,982.304
2019-01-14T20:18:49.596Z,982.374
2019-01-14T20:20:49.698Z,982.415
2019-01-14T20:22:49.723Z,982.481
2019-01-14T20:24:49.790Z,982.481
2019-01-14T20:26:50.056Z,982.497
2019-01-14T20:28:50.045Z,982.532
2019-01-14T20:30:50.000Z,982.551
2019-01-14T20:32:50.032Z,982.577
2019-01-14T20:34:50.277Z,982.596
2019-01-14T20:36:50.494Z,982.632
2019-01-14T20:38:49.691Z,982.649
2019-01-14T20:40:49.893Z,982.677
2019-01-14T20:42:49.949Z,982.674
2019-01-14T20:44:49.941Z,982.671
2019-01-14T20:46:50.050Z,982.678
2019-01-14T20:48:50.064Z,982.666
2019-01-14T20:50:50.075Z,982.687
2019-01-14T20:52:50.162Z,982.679
2019-01-14T20:54:50.193Z,982.677
2019-01-14T20:56:50.514Z,982.653
2019-01-14T20:58:50.623Z,982.672
2019-01-14T21:00:50.581Z,982.682
2019-01-14T21:02:49.741Z,982.715
2019-01-14T21:04:50.104Z,982.752
2019-01-14T21:06:50.420Z,982.752
2019-01-14T21:08:50.444Z,982.809
2019-01-14T21:10:50.587Z,982.815
2019-01-14T21:12:49.667Z,982.828
2019-01-14T21:14:49.695Z,982.849
2019-01-14T21:16:49.927Z,982.847
2019-01-14T21:18:49.946Z,982.853
2019-01-14T21:20:49.900Z,982.857
2019-01-14T21:22:49.881Z,982.861
2019-01-14T21:24:49.910Z,982.868
2019-01-14T21:26:50.006Z,982.896
2019-01-14T21:28:49.973Z,982.952
2019-01-14T21:30:50.012Z,982.965
2019-01-14T21:32:49.996Z,982.959
2019-01-14T21:34:50.295Z,982.941
2019-01-14T21:36:50.510Z,982.931
2019-01-14T21:38:50.613Z,982.926
2019-01-14T21:40:49.643Z,982.939
2019-01-14T21:42:49.761Z,982.959
2019-01-14T21:44:49.782Z,982.983
2019-01-14T21:46:50.109Z,982.983
2019-01-14T21:48:50.064Z,982.983
2019-01-14T21:50:50.104Z,983.068
2019-01-14T21:52:50.113Z,983.068
2019-01-14T21:54:50.092Z,983.033
2019-01-14T21:56:50.261Z,983.009
2019-01-14T21:58:50.241Z,982.987
2019-01-14T22:00:50.274Z,982.967
2019-01-14T22:02:50.322Z,982.972
2019-01-14T22:04:49.618Z,982.976
2019-01-14T22:06:49.894Z,983.035
2019-01-14T22:08:49.969Z,983.095
2019-01-14T22:10:50.007Z,983.117
2019-01-14T22:12:50.014Z,983.154
2019-01-14T22:14:49.983Z,983.149
2019-01-14T22:16:50.200Z,983.133
2019-01-14T22:18:50.201Z,983.138
2019-01-14T22:20:50.198Z,983.144
2019-01-14T22:22:50.177Z,983.165
2019-01-14T22:24:50.301Z,983.177
2019-01-14T22:26:50.569Z,983.177
2019-01-14T22:28:49.648Z,983.194
2019-01-14T22:30:49.635Z,983.163
2019-01-14T22:32:49.639Z,983.138
2019-01-14T22:34:50.177Z,983.139
2019-01-14T22:36:50.311Z,983.144
2019-01-14T22:38:50.323Z,983.139
2019-01-14T22:40:50.354Z,983.137
2019-01-14T22:42:50.307Z,983.124
2019-01-14T22:44:50.408Z,983.135
2019-01-14T22:46:49.622Z,983.145
2019-01-14T22:48:49.640Z,983.172
2019-01-14T22:50:49.748Z,983.175
2019-01-14T22:52:49.776Z,983.178
2019-01-14T22:54:49.890Z,983.224
2019-01-14T22:56:50.213Z,983.248
2019-01-14T22:58:50.220Z,983.266
2019-01-14T23:00:50.181Z,983.268
2019-01-14T23:02:49.726Z,983.301
2019-01-14T23:04:50.330Z,983.315
2019-01-14T23:06:49.611Z,983.302
2019-01-14T23:08:49.669Z,983.302
2019-01-14T23:10:51.123Z,983.326
2019-01-14T23:12:50.178Z,983.323
2019-01-14T23:14:50.169Z,983.315
2019-01-14T23:16:50.340Z,983.318
2019-01-14T23:18:50.344Z,983.338
2019-01-14T23:20:50.329Z,983.347
2019-01-14T23:22:50.427Z,983.347
2019-01-14T23:24:50.766Z,983.347
2019-01-14T23:26:50.072Z,983.388
2019-01-14T23:28:50.085Z,983.412
2019-01-14T23:30:50.125Z,983.423
2019-01-14T23:32:50.107Z,983.438
2019-01-14T23:34:50.445Z,983.490
2019-01-14T23:36:49.798Z,983.489
2019-01-14T23:38:49.787Z,983.503
2019-01-14T23:40:49.802Z,983.532
2019-01-14T23:42:49.828Z,983.539
2019-01-14T23:44:49.833Z,983.569
2019-01-14T23:46:49.971Z,983.583
2019-01-14T23:48:49.914Z,983.625
2019-01-14T23:50:49.903Z,983.642
2019-01-14T23:52:49.914Z,983.660
2019-01-14T23:54:49.890Z,983.684
2019-01-14T23:56:50.095Z,983.699
2019-01-14T23:58:50.070Z,983.712
